sensor_id;sensor_type;location;lat;lon;timestamp;P1;durP1;ratioP1;P2;durP2;ratioP2
18883;SDS011;9574;47.282;9.640;2022-12-11T00:02:09;13.83;;;7.23;;
18883;SDS011;9574;47.282;9.640;2022-12-11T00:04:36;11.33;;;6.20;;
18883;SDS011;9574;47.282;9.640;2022-12-11T00:07:03;14.17;;;6.77;;
18883;SDS011;9574;47.282;9.640;2022-12-11T00:09:30;11.77;;;6.27;;
18883;SDS011;9574;47.282;9.640;2022-12-11T00:11:57;11.90;;;6.10;;
18883;SDS011;9574;47.282;9.640;2022-12-11T00:14:23;14.90;;;7.97;;
18883;SDS011;9574;47.282;9.640;2022-12-11T00:16:52;14.23;;;6.90;;
18883;SDS011;9574;47.282;9.640;2022-12-11T00:19:19;14.63;;;7.43;;
18883;SDS011;9574;47.282;9.640;2022-12-11T00:21:46;13.43;;;6.47;;
18883;SDS011;9574;47.282;9.640;2022-12-11T00:24:13;15.03;;;7.23;;
18883;SDS011;9574;47.282;9.640;2022-12-11T00:26:40;17.57;;;7.90;;
18883;SDS011;9574;47.282;9.640;2022-12-11T00:29:08;15.47;;;7.77;;
18883;SDS011;9574;47.282;9.640;2022-12-11T00:31:38;14.93;;;7.90;;
18883;SDS011;9574;47.282;9.640;2022-12-11T00:34:08;19.97;;;8.47;;
18883;SDS011;9574;47.282;9.640;2022-12-11T00:36:36;16.77;;;8.50;;
18883;SDS011;9574;47.282;9.640;2022-12-11T00:39:04;19.80;;;9.13;;
18883;SDS011;9574;47.282;9.640;2022-12-11T00:41:31;16.90;;;7.87;;
18883;SDS011;9574;47.282;9.640;2022-12-11T00:43:58;21.93;;;9.03;;
18883;SDS011;9574;47.282;9.640;2022-12-11T00:46:25;20.83;;;8.17;;
18883;SDS011;9574;47.282;9.640;2022-12-11T00:48:52;20.27;;;8.20;;
18883;SDS011;9574;47.282;9.640;2022-12-11T00:51:21;16.83;;;8.30;;
18883;SDS011;9574;47.282;9.640;2022-12-11T00:53:48;14.47;;;8.73;;
18883;SDS011;9574;47.282;9.640;2022-12-11T00:56:19;19.43;;;9.27;;
18883;SDS011;9574;47.282;9.640;2022-12-11T00:58:47;20.60;;;9.20;;
18883;SDS011;9574;47.282;9.640;2022-12-11T01:01:15;17.77;;;8.93;;
18883;SDS011;9574;47.282;9.640;2022-12-11T01:03:44;18.00;;;9.37;;
18883;SDS011;9574;47.282;9.640;2022-12-11T01:06:12;21.37;;;8.87;;
18883;SDS011;9574;47.282;9.640;2022-12-11T01:08:42;19.77;;;9.07;;
18883;SDS011;9574;47.282;9.640;2022-12-11T01:11:12;17.10;;;9.60;;
18883;SDS011;9574;47.282;9.640;2022-12-11T01:13:39;18.50;;;8.97;;
18883;SDS011;9574;47.282;9.640;2022-12-11T01:16:07;24.30;;;11.20;;
18883;SDS011;9574;47.282;9.640;2022-12-11T01:18:35;19.90;;;9.00;;
18883;SDS011;9574;47.282;9.640;2022-12-11T01:21:06;17.57;;;9.10;;
18883;SDS011;9574;47.282;9.640;2022-12-11T01:23:34;21.23;;;8.83;;
18883;SDS011;9574;47.282;9.640;2022-12-11T01:26:06;20.90;;;9.77;;
18883;SDS011;9574;47.282;9.640;2022-12-11T01:28:35;16.07;;;8.23;;
18883;SDS011;9574;47.282;9.640;2022-12-11T01:31:06;19.13;;;9.50;;
18883;SDS011;9574;47.282;9.640;2022-12-11T01:33:34;20.30;;;9.17;;
18883;SDS011;9574;47.282;9.640;2022-12-11T01:36:05;16.77;;;8.83;;
18883;SDS011;9574;47.282;9.640;2022-12-11T01:38:32;16.70;;;9.33;;
18883;SDS011;9574;47.282;9.640;2022-12-11T01:40:59;19.87;;;8.80;;
18883;SDS011;9574;47.282;9.640;2022-12-11T01:43:28;23.07;;;8.83;;
18883;SDS011;9574;47.282;9.640;2022-12-11T01:45:55;20.00;;;9.40;;
18883;SDS011;9574;47.282;9.640;2022-12-11T01:48:22;19.30;;;9.17;;
18883;SDS011;9574;47.282;9.640;2022-12-11T01:50:53;13.13;;;7.83;;
18883;SDS011;9574;47.282;9.640;2022-12-11T01:53:23;17.70;;;8.90;;
18883;SDS011;9574;47.282;9.640;2022-12-11T01:55:52;22.13;;;8.57;;
18883;SDS011;9574;47.282;9.640;2022-12-11T01:58:22;20.57;;;9.23;;
18883;SDS011;9574;47.282;9.640;2022-12-11T02:00:54;22.60;;;9.57;;
18883;SDS011;9574;47.282;9.640;2022-12-11T02:03:22;23.97;;;8.80;;
18883;SDS011;9574;47.282;9.640;2022-12-11T02:05:49;20.03;;;9.00;;
18883;SDS011;9574;47.282;9.640;2022-12-11T02:08:16;20.17;;;9.10;;
18883;SDS011;9574;47.282;9.640;2022-12-11T02:10:48;23.90;;;10.50;;
18883;SDS011;9574;47.282;9.640;2022-12-11T02:13:25;19.13;;;8.57;;
18883;SDS011;9574;47.282;9.640;2022-12-11T02:15:59;18.23;;;8.37;;
18883;SDS011;9574;47.282;9.640;2022-12-11T02:18:33;22.23;;;10.30;;
18883;SDS011;9574;47.282;9.640;2022-12-11T02:21:08;18.47;;;9.23;;
18883;SDS011;9574;47.282;9.640;2022-12-11T02:23:52;16.90;;;8.73;;
18883;SDS011;9574;47.282;9.640;2022-12-11T02:29:24;18.50;;;9.10;;
18883;SDS011;9574;47.282;9.640;2022-12-11T02:31:56;19.20;;;9.70;;
18883;SDS011;9574;47.282;9.640;2022-12-11T02:34:28;17.83;;;8.80;;
18883;SDS011;9574;47.282;9.640;2022-12-11T02:37:01;20.83;;;9.27;;
18883;SDS011;9574;47.282;9.640;2022-12-11T02:39:32;14.90;;;7.30;;
18883;SDS011;9574;47.282;9.640;2022-12-11T02:42:01;18.47;;;8.70;;
18883;SDS011;9574;47.282;9.640;2022-12-11T02:44:32;18.23;;;8.13;;
18883;SDS011;9574;47.282;9.640;2022-12-11T02:47:00;14.00;;;7.00;;
18883;SDS011;9574;47.282;9.640;2022-12-11T02:49:29;14.93;;;7.60;;
18883;SDS011;9574;47.282;9.640;2022-12-11T02:51:59;15.17;;;7.47;;
18883;SDS011;9574;47.282;9.640;2022-12-11T02:54:28;16.47;;;7.77;;
18883;SDS011;9574;47.282;9.640;2022-12-11T02:56:59;11.03;;;6.37;;
18883;SDS011;9574;47.282;9.640;2022-12-11T02:59:31;16.00;;;6.87;;
18883;SDS011;9574;47.282;9.640;2022-12-11T03:02:01;17.20;;;6.80;;
18883;SDS011;9574;47.282;9.640;2022-12-11T03:04:28;14.03;;;5.90;;
18883;SDS011;9574;47.282;9.640;2022-12-11T03:06:57;12.67;;;6.40;;
18883;SDS011;9574;47.282;9.640;2022-12-11T03:09:36;13.83;;;6.33;;
18883;SDS011;9574;47.282;9.640;2022-12-11T03:12:04;13.47;;;6.47;;
18883;SDS011;9574;47.282;9.640;2022-12-11T03:14:34;14.80;;;7.13;;
18883;SDS011;9574;47.282;9.640;2022-12-11T03:17:04;14.97;;;6.40;;
18883;SDS011;9574;47.282;9.640;2022-12-11T03:19:39;14.87;;;6.97;;
18883;SDS011;9574;47.282;9.640;2022-12-11T03:22:10;14.43;;;5.93;;
18883;SDS011;9574;47.282;9.640;2022-12-11T03:24:43;14.30;;;6.70;;
18883;SDS011;9574;47.282;9.640;2022-12-11T03:27:13;17.00;;;8.23;;
18883;SDS011;9574;47.282;9.640;2022-12-11T03:29:47;19.07;;;7.63;;
18883;SDS011;9574;47.282;9.640;2022-12-11T03:32:20;14.33;;;6.77;;
18883;SDS011;9574;47.282;9.640;2022-12-11T03:34:53;16.13;;;7.97;;
18883;SDS011;9574;47.282;9.640;2022-12-11T03:37:25;17.50;;;7.60;;
18883;SDS011;9574;47.282;9.640;2022-12-11T03:39:57;15.80;;;7.83;;
18883;SDS011;9574;47.282;9.640;2022-12-11T03:42:31;16.37;;;8.67;;
18883;SDS011;9574;47.282;9.640;2022-12-11T03:45:00;17.70;;;8.33;;
18883;SDS011;9574;47.282;9.640;2022-12-11T03:47:29;17.80;;;7.90;;
18883;SDS011;9574;47.282;9.640;2022-12-11T03:49:57;15.13;;;7.87;;
18883;SDS011;9574;47.282;9.640;2022-12-11T03:52:26;16.53;;;7.20;;
18883;SDS011;9574;47.282;9.640;2022-12-11T03:54:55;18.87;;;8.03;;
18883;SDS011;9574;47.282;9.640;2022-12-11T03:57:27;16.87;;;7.57;;
18883;SDS011;9574;47.282;9.640;2022-12-11T03:59:56;16.43;;;8.73;;
18883;SDS011;9574;47.282;9.640;2022-12-11T04:02:25;17.07;;;8.17;;
18883;SDS011;9574;47.282;9.640;2022-12-11T04:04:52;15.07;;;7.53;;
18883;SDS011;9574;47.282;9.640;2022-12-11T04:07:19;18.73;;;9.10;;
18883;SDS011;9574;47.282;9.640;2022-12-11T04:09:46;15.23;;;7.97;;
18883;SDS011;9574;47.282;9.640;2022-12-11T04:12:13;19.63;;;9.63;;
18883;SDS011;9574;47.282;9.640;2022-12-11T04:14:40;21.00;;;9.50;;
18883;SDS011;9574;47.282;9.640;2022-12-11T04:17:25;25.40;;;10.20;;
18883;SDS011;9574;47.282;9.640;2022-12-11T04:20:10;18.37;;;7.90;;
18883;SDS011;9574;47.282;9.640;2022-12-11T04:22:54;19.17;;;8.70;;
18883;SDS011;9574;47.282;9.640;2022-12-11T04:25:50;20.93;;;8.77;;
18883;SDS011;9574;47.282;9.640;2022-12-11T04:28:17;18.87;;;9.23;;
18883;SDS011;9574;47.282;9.640;2022-12-11T04:30:46;20.13;;;8.90;;
18883;SDS011;9574;47.282;9.640;2022-12-11T04:33:15;24.97;;;11.20;;
18883;SDS011;9574;47.282;9.640;2022-12-11T04:35:42;23.60;;;10.93;;
18883;SDS011;9574;47.282;9.640;2022-12-11T04:38:09;22.63;;;11.87;;
18883;SDS011;9574;47.282;9.640;2022-12-11T04:40:36;21.20;;;9.67;;
18883;SDS011;9574;47.282;9.640;2022-12-11T04:43:03;21.00;;;10.03;;
18883;SDS011;9574;47.282;9.640;2022-12-11T04:45:30;17.00;;;8.30;;
18883;SDS011;9574;47.282;9.640;2022-12-11T04:47:57;24.13;;;9.70;;
18883;SDS011;9574;47.282;9.640;2022-12-11T04:50:26;19.73;;;10.10;;
18883;SDS011;9574;47.282;9.640;2022-12-11T04:52:53;17.63;;;8.20;;
18883;SDS011;9574;47.282;9.640;2022-12-11T04:55:21;25.80;;;10.50;;
18883;SDS011;9574;47.282;9.640;2022-12-11T04:57:48;22.43;;;9.60;;
18883;SDS011;9574;47.282;9.640;2022-12-11T05:00:15;20.37;;;9.47;;
18883;SDS011;9574;47.282;9.640;2022-12-11T05:02:42;19.70;;;10.17;;
18883;SDS011;9574;47.282;9.640;2022-12-11T05:05:09;21.43;;;10.23;;
18883;SDS011;9574;47.282;9.640;2022-12-11T05:07:38;17.77;;;9.60;;
18883;SDS011;9574;47.282;9.640;2022-12-11T05:10:06;19.80;;;10.37;;
18883;SDS011;9574;47.282;9.640;2022-12-11T05:12:34;23.67;;;8.93;;
18883;SDS011;9574;47.282;9.640;2022-12-11T05:15:01;12.57;;;7.00;;
18883;SDS011;9574;47.282;9.640;2022-12-11T05:17:28;19.20;;;8.60;;
18883;SDS011;9574;47.282;9.640;2022-12-11T05:19:55;20.43;;;8.63;;
18883;SDS011;9574;47.282;9.640;2022-12-11T05:22:22;13.70;;;7.10;;
18883;SDS011;9574;47.282;9.640;2022-12-11T05:24:50;17.67;;;8.00;;
18883;SDS011;9574;47.282;9.640;2022-12-11T05:27:17;18.97;;;8.43;;
18883;SDS011;9574;47.282;9.640;2022-12-11T05:29:45;20.87;;;9.10;;
18883;SDS011;9574;47.282;9.640;2022-12-11T05:32:12;19.00;;;8.70;;
18883;SDS011;9574;47.282;9.640;2022-12-11T05:34:38;18.03;;;9.43;;
18883;SDS011;9574;47.282;9.640;2022-12-11T05:37:05;23.17;;;9.57;;
18883;SDS011;9574;47.282;9.640;2022-12-11T05:39:32;17.90;;;7.87;;
18883;SDS011;9574;47.282;9.640;2022-12-11T05:42:01;17.47;;;8.10;;
18883;SDS011;9574;47.282;9.640;2022-12-11T05:44:28;19.43;;;7.60;;
18883;SDS011;9574;47.282;9.640;2022-12-11T05:46:55;15.70;;;8.50;;
18883;SDS011;9574;47.282;9.640;2022-12-11T05:49:22;17.17;;;8.33;;
18883;SDS011;9574;47.282;9.640;2022-12-11T05:51:49;11.80;;;6.70;;
18883;SDS011;9574;47.282;9.640;2022-12-11T05:54:16;18.70;;;9.23;;
18883;SDS011;9574;47.282;9.640;2022-12-11T05:56:43;19.00;;;8.20;;
18883;SDS011;9574;47.282;9.640;2022-12-11T05:59:11;19.10;;;9.40;;
18883;SDS011;9574;47.282;9.640;2022-12-11T06:01:39;11.73;;;6.40;;
18883;SDS011;9574;47.282;9.640;2022-12-11T06:04:08;21.87;;;8.43;;
18883;SDS011;9574;47.282;9.640;2022-12-11T06:06:36;18.20;;;7.63;;
18883;SDS011;9574;47.282;9.640;2022-12-11T06:09:04;18.40;;;9.23;;
18883;SDS011;9574;47.282;9.640;2022-12-11T06:11:32;18.87;;;9.03;;
18883;SDS011;9574;47.282;9.640;2022-12-11T06:14:00;23.80;;;9.67;;
18883;SDS011;9574;47.282;9.640;2022-12-11T06:16:30;21.73;;;9.57;;
18883;SDS011;9574;47.282;9.640;2022-12-11T06:18:57;22.73;;;9.03;;
18883;SDS011;9574;47.282;9.640;2022-12-11T06:21:25;22.97;;;9.07;;
18883;SDS011;9574;47.282;9.640;2022-12-11T06:23:55;20.73;;;9.40;;
18883;SDS011;9574;47.282;9.640;2022-12-11T06:26:23;20.80;;;10.53;;
18883;SDS011;9574;47.282;9.640;2022-12-11T06:28:50;16.60;;;8.53;;
18883;SDS011;9574;47.282;9.640;2022-12-11T06:31:18;13.63;;;7.70;;
18883;SDS011;9574;47.282;9.640;2022-12-11T06:33:47;17.67;;;8.47;;
18883;SDS011;9574;47.282;9.640;2022-12-11T06:36:14;14.57;;;8.53;;
18883;SDS011;9574;47.282;9.640;2022-12-11T06:38:42;18.90;;;8.33;;
18883;SDS011;9574;47.282;9.640;2022-12-11T06:41:09;12.93;;;7.37;;
18883;SDS011;9574;47.282;9.640;2022-12-11T06:43:37;20.03;;;9.17;;
18883;SDS011;9574;47.282;9.640;2022-12-11T06:46:06;22.50;;;9.33;;
18883;SDS011;9574;47.282;9.640;2022-12-11T06:48:34;14.87;;;7.60;;
18883;SDS011;9574;47.282;9.640;2022-12-11T06:51:06;15.70;;;8.37;;
18883;SDS011;9574;47.282;9.640;2022-12-11T06:53:34;17.07;;;8.90;;
18883;SDS011;9574;47.282;9.640;2022-12-11T06:56:02;14.43;;;7.57;;
18883;SDS011;9574;47.282;9.640;2022-12-11T06:58:29;17.60;;;7.83;;
18883;SDS011;9574;47.282;9.640;2022-12-11T07:00:56;15.40;;;7.07;;
18883;SDS011;9574;47.282;9.640;2022-12-11T07:03:23;19.97;;;10.10;;
18883;SDS011;9574;47.282;9.640;2022-12-11T07:05:50;19.43;;;9.10;;
18883;SDS011;9574;47.282;9.640;2022-12-11T07:08:18;19.33;;;9.03;;
18883;SDS011;9574;47.282;9.640;2022-12-11T07:10:45;17.00;;;7.83;;
18883;SDS011;9574;47.282;9.640;2022-12-11T07:13:12;16.50;;;8.03;;
18883;SDS011;9574;47.282;9.640;2022-12-11T07:15:39;17.43;;;8.60;;
18883;SDS011;9574;47.282;9.640;2022-12-11T07:18:06;15.77;;;7.03;;
18883;SDS011;9574;47.282;9.640;2022-12-11T07:20:34;17.40;;;7.97;;
18883;SDS011;9574;47.282;9.640;2022-12-11T07:23:01;16.87;;;8.23;;
18883;SDS011;9574;47.282;9.640;2022-12-11T07:25:30;21.07;;;8.30;;
18883;SDS011;9574;47.282;9.640;2022-12-11T07:27:57;17.70;;;8.23;;
18883;SDS011;9574;47.282;9.640;2022-12-11T07:30:24;17.97;;;7.97;;
18883;SDS011;9574;47.282;9.640;2022-12-11T07:32:51;16.63;;;8.93;;
18883;SDS011;9574;47.282;9.640;2022-12-11T07:35:18;16.93;;;7.00;;
18883;SDS011;9574;47.282;9.640;2022-12-11T07:37:45;18.63;;;8.07;;
18883;SDS011;9574;47.282;9.640;2022-12-11T07:40:12;17.87;;;8.53;;
18883;SDS011;9574;47.282;9.640;2022-12-11T07:42:40;17.37;;;8.40;;
18883;SDS011;9574;47.282;9.640;2022-12-11T07:45:08;13.07;;;7.20;;
18883;SDS011;9574;47.282;9.640;2022-12-11T07:47:36;16.07;;;8.13;;
18883;SDS011;9574;47.282;9.640;2022-12-11T07:50:03;20.60;;;8.50;;
18883;SDS011;9574;47.282;9.640;2022-12-11T07:52:31;20.53;;;8.13;;
18883;SDS011;9574;47.282;9.640;2022-12-11T07:54:58;14.33;;;7.03;;
18883;SDS011;9574;47.282;9.640;2022-12-11T07:57:26;14.87;;;7.07;;
18883;SDS011;9574;47.282;9.640;2022-12-11T07:59:55;14.97;;;6.93;;
18883;SDS011;9574;47.282;9.640;2022-12-11T08:02:21;14.57;;;7.13;;
18883;SDS011;9574;47.282;9.640;2022-12-11T08:04:48;15.47;;;6.77;;
18883;SDS011;9574;47.282;9.640;2022-12-11T08:07:15;17.70;;;8.17;;
18883;SDS011;9574;47.282;9.640;2022-12-11T08:09:42;21.03;;;7.20;;
18883;SDS011;9574;47.282;9.640;2022-12-11T08:12:09;15.40;;;7.23;;
18883;SDS011;9574;47.282;9.640;2022-12-11T08:14:37;13.57;;;7.23;;
18883;SDS011;9574;47.282;9.640;2022-12-11T08:17:06;11.63;;;6.47;;
18883;SDS011;9574;47.282;9.640;2022-12-11T08:19:33;18.20;;;7.90;;
18883;SDS011;9574;47.282;9.640;2022-12-11T08:22:00;14.20;;;7.03;;
18883;SDS011;9574;47.282;9.640;2022-12-11T08:24:26;12.40;;;6.10;;
18883;SDS011;9574;47.282;9.640;2022-12-11T08:26:53;12.77;;;7.03;;
18883;SDS011;9574;47.282;9.640;2022-12-11T08:29:20;13.13;;;6.67;;
18883;SDS011;9574;47.282;9.640;2022-12-11T08:31:47;16.13;;;7.97;;
18883;SDS011;9574;47.282;9.640;2022-12-11T08:34:16;15.70;;;7.17;;
18883;SDS011;9574;47.282;9.640;2022-12-11T08:36:43;15.40;;;8.10;;
18883;SDS011;9574;47.282;9.640;2022-12-11T08:39:10;16.27;;;8.00;;
18883;SDS011;9574;47.282;9.640;2022-12-11T08:41:37;13.83;;;7.03;;
18883;SDS011;9574;47.282;9.640;2022-12-11T08:44:03;16.17;;;7.63;;
18883;SDS011;9574;47.282;9.640;2022-12-11T08:46:31;16.70;;;7.33;;
18883;SDS011;9574;47.282;9.640;2022-12-11T08:48:58;18.37;;;7.30;;
18883;SDS011;9574;47.282;9.640;2022-12-11T08:51:27;14.63;;;7.60;;
18883;SDS011;9574;47.282;9.640;2022-12-11T08:53:55;13.70;;;6.57;;
18883;SDS011;9574;47.282;9.640;2022-12-11T08:56:24;17.13;;;7.60;;
18883;SDS011;9574;47.282;9.640;2022-12-11T08:58:53;16.10;;;8.17;;
18883;SDS011;9574;47.282;9.640;2022-12-11T09:01:21;13.27;;;6.83;;
18883;SDS011;9574;47.282;9.640;2022-12-11T09:03:49;19.30;;;8.27;;
18883;SDS011;9574;47.282;9.640;2022-12-11T09:06:18;12.60;;;6.93;;
18883;SDS011;9574;47.282;9.640;2022-12-11T09:08:48;14.83;;;7.77;;
18883;SDS011;9574;47.282;9.640;2022-12-11T09:11:17;16.27;;;8.60;;
18883;SDS011;9574;47.282;9.640;2022-12-11T09:13:45;13.80;;;7.27;;
18883;SDS011;9574;47.282;9.640;2022-12-11T09:16:13;15.73;;;7.87;;
18883;SDS011;9574;47.282;9.640;2022-12-11T09:18:44;15.80;;;7.90;;
18883;SDS011;9574;47.282;9.640;2022-12-11T09:21:12;13.50;;;7.07;;
18883;SDS011;9574;47.282;9.640;2022-12-11T09:23:41;17.07;;;8.63;;
18883;SDS011;9574;47.282;9.640;2022-12-11T09:26:11;14.30;;;6.60;;
18883;SDS011;9574;47.282;9.640;2022-12-11T09:28:39;14.80;;;6.93;;
18883;SDS011;9574;47.282;9.640;2022-12-11T09:31:07;17.70;;;8.23;;
18883;SDS011;9574;47.282;9.640;2022-12-11T09:33:36;14.20;;;6.87;;
18883;SDS011;9574;47.282;9.640;2022-12-11T09:36:03;14.23;;;6.87;;
18883;SDS011;9574;47.282;9.640;2022-12-11T09:38:31;12.87;;;7.57;;
18883;SDS011;9574;47.282;9.640;2022-12-11T09:40:59;14.10;;;6.70;;
18883;SDS011;9574;47.282;9.640;2022-12-11T09:43:37;13.67;;;6.80;;
18883;SDS011;9574;47.282;9.640;2022-12-11T09:46:09;11.67;;;6.73;;
18883;SDS011;9574;47.282;9.640;2022-12-11T09:48:38;12.87;;;7.73;;
18883;SDS011;9574;47.282;9.640;2022-12-11T09:51:09;14.93;;;7.10;;
18883;SDS011;9574;47.282;9.640;2022-12-11T09:53:42;11.63;;;6.60;;
18883;SDS011;9574;47.282;9.640;2022-12-11T09:56:13;13.80;;;6.67;;
18883;SDS011;9574;47.282;9.640;2022-12-11T09:58:49;12.00;;;5.90;;
18883;SDS011;9574;47.282;9.640;2022-12-11T10:01:30;11.47;;;6.33;;
18883;SDS011;9574;47.282;9.640;2022-12-11T10:07:04;13.63;;;6.03;;
18883;SDS011;9574;47.282;9.640;2022-12-11T10:09:38;9.80;;;5.57;;
18883;SDS011;9574;47.282;9.640;2022-12-11T10:12:15;12.43;;;5.67;;
18883;SDS011;9574;47.282;9.640;2022-12-11T10:15:01;9.33;;;5.50;;
18883;SDS011;9574;47.282;9.640;2022-12-11T10:17:43;10.27;;;5.93;;
18883;SDS011;9574;47.282;9.640;2022-12-11T10:20:15;9.87;;;5.50;;
18883;SDS011;9574;47.282;9.640;2022-12-11T10:22:48;18.20;;;6.97;;
18883;SDS011;9574;47.282;9.640;2022-12-11T10:25:18;11.90;;;6.20;;
18883;SDS011;9574;47.282;9.640;2022-12-11T10:27:46;8.20;;;4.47;;
18883;SDS011;9574;47.282;9.640;2022-12-11T10:30:16;8.47;;;5.03;;
18883;SDS011;9574;47.282;9.640;2022-12-11T10:32:56;8.57;;;4.47;;
18883;SDS011;9574;47.282;9.640;2022-12-11T10:35:33;6.80;;;3.77;;
18883;SDS011;9574;47.282;9.640;2022-12-11T10:38:12;8.60;;;4.07;;
18883;SDS011;9574;47.282;9.640;2022-12-11T10:40:42;7.57;;;4.63;;
18883;SDS011;9574;47.282;9.640;2022-12-11T10:43:11;8.63;;;4.40;;
18883;SDS011;9574;47.282;9.640;2022-12-11T10:45:48;8.87;;;4.30;;
18883;SDS011;9574;47.282;9.640;2022-12-11T10:48:16;8.07;;;4.50;;
18883;SDS011;9574;47.282;9.640;2022-12-11T10:50:43;7.53;;;4.10;;
18883;SDS011;9574;47.282;9.640;2022-12-11T10:53:21;8.80;;;4.23;;
18883;SDS011;9574;47.282;9.640;2022-12-11T10:55:50;8.00;;;4.53;;
18883;SDS011;9574;47.282;9.640;2022-12-11T10:58:18;10.60;;;4.73;;
18883;SDS011;9574;47.282;9.640;2022-12-11T11:00:48;11.27;;;5.00;;
18883;SDS011;9574;47.282;9.640;2022-12-11T11:03:30;7.40;;;4.50;;
18883;SDS011;9574;47.282;9.640;2022-12-11T11:06:05;7.33;;;3.83;;
18883;SDS011;9574;47.282;9.640;2022-12-11T11:08:42;8.80;;;4.50;;
18883;SDS011;9574;47.282;9.640;2022-12-11T11:14:11;8.17;;;4.60;;
18883;SDS011;9574;47.282;9.640;2022-12-11T11:16:42;7.23;;;4.07;;
18883;SDS011;9574;47.282;9.640;2022-12-11T11:19:15;9.57;;;4.37;;
18883;SDS011;9574;47.282;9.640;2022-12-11T11:21:47;7.37;;;4.17;;
18883;SDS011;9574;47.282;9.640;2022-12-11T11:24:23;9.17;;;4.77;;
18883;SDS011;9574;47.282;9.640;2022-12-11T11:26:53;7.83;;;4.80;;
18883;SDS011;9574;47.282;9.640;2022-12-11T11:29:23;13.17;;;5.57;;
18883;SDS011;9574;47.282;9.640;2022-12-11T11:31:55;6.83;;;4.10;;
18883;SDS011;9574;47.282;9.640;2022-12-11T11:34:22;6.77;;;3.97;;
18883;SDS011;9574;47.282;9.640;2022-12-11T11:36:59;7.13;;;4.17;;
18883;SDS011;9574;47.282;9.640;2022-12-11T11:39:30;6.97;;;4.27;;
18883;SDS011;9574;47.282;9.640;2022-12-11T11:42:05;10.73;;;5.00;;
18883;SDS011;9574;47.282;9.640;2022-12-11T11:44:36;9.13;;;4.87;;
18883;SDS011;9574;47.282;9.640;2022-12-11T11:47:09;6.23;;;4.20;;
18883;SDS011;9574;47.282;9.640;2022-12-11T11:49:43;6.60;;;3.97;;
18883;SDS011;9574;47.282;9.640;2022-12-11T11:52:19;7.70;;;4.53;;
18883;SDS011;9574;47.282;9.640;2022-12-11T11:54:54;8.30;;;4.53;;
18883;SDS011;9574;47.282;9.640;2022-12-11T11:57:28;9.83;;;5.00;;
18883;SDS011;9574;47.282;9.640;2022-12-11T12:00:00;10.33;;;5.40;;
18883;SDS011;9574;47.282;9.640;2022-12-11T12:02:36;9.17;;;4.50;;
18883;SDS011;9574;47.282;9.640;2022-12-11T12:05:03;7.30;;;4.27;;
18883;SDS011;9574;47.282;9.640;2022-12-11T12:07:33;7.67;;;4.33;;
18883;SDS011;9574;47.282;9.640;2022-12-11T12:10:11;9.50;;;5.13;;
18883;SDS011;9574;47.282;9.640;2022-12-11T12:12:47;10.40;;;5.17;;
18883;SDS011;9574;47.282;9.640;2022-12-11T12:15:21;9.37;;;4.87;;
18883;SDS011;9574;47.282;9.640;2022-12-11T12:18:01;11.27;;;5.40;;
18883;SDS011;9574;47.282;9.640;2022-12-11T12:20:36;10.83;;;5.13;;
18883;SDS011;9574;47.282;9.640;2022-12-11T12:23:19;7.50;;;4.17;;
18883;SDS011;9574;47.282;9.640;2022-12-11T12:25:58;8.27;;;4.57;;
18883;SDS011;9574;47.282;9.640;2022-12-11T12:28:36;8.93;;;4.37;;
18883;SDS011;9574;47.282;9.640;2022-12-11T12:31:16;8.10;;;4.53;;
18883;SDS011;9574;47.282;9.640;2022-12-11T12:33:58;7.17;;;4.33;;
18883;SDS011;9574;47.282;9.640;2022-12-11T12:36:32;18.03;;;8.13;;
18883;SDS011;9574;47.282;9.640;2022-12-11T12:39:10;11.20;;;6.13;;
18883;SDS011;9574;47.282;9.640;2022-12-11T12:41:47;8.10;;;4.87;;
18883;SDS011;9574;47.282;9.640;2022-12-11T12:44:21;6.47;;;4.13;;
18883;SDS011;9574;47.282;9.640;2022-12-11T12:46:57;11.07;;;6.00;;
18883;SDS011;9574;47.282;9.640;2022-12-11T12:49:31;9.40;;;6.03;;
18883;SDS011;9574;47.282;9.640;2022-12-11T12:52:02;8.17;;;4.77;;
18883;SDS011;9574;47.282;9.640;2022-12-11T12:54:31;8.00;;;4.40;;
18883;SDS011;9574;47.282;9.640;2022-12-11T12:57:00;5.40;;;3.87;;
18883;SDS011;9574;47.282;9.640;2022-12-11T12:59:29;11.37;;;5.77;;
18883;SDS011;9574;47.282;9.640;2022-12-11T13:01:56;13.83;;;6.43;;
18883;SDS011;9574;47.282;9.640;2022-12-11T13:04:37;23.57;;;10.67;;
18883;SDS011;9574;47.282;9.640;2022-12-11T13:07:10;21.13;;;11.33;;
18883;SDS011;9574;47.282;9.640;2022-12-11T13:09:40;9.73;;;5.80;;
18883;SDS011;9574;47.282;9.640;2022-12-11T13:12:12;12.40;;;6.63;;
18883;SDS011;9574;47.282;9.640;2022-12-11T13:14:40;8.30;;;4.90;;
18883;SDS011;9574;47.282;9.640;2022-12-11T13:17:23;9.63;;;7.20;;
18883;SDS011;9574;47.282;9.640;2022-12-11T13:20:10;10.57;;;6.50;;
18883;SDS011;9574;47.282;9.640;2022-12-11T13:22:46;6.70;;;4.40;;
18883;SDS011;9574;47.282;9.640;2022-12-11T13:25:29;7.37;;;4.20;;
18883;SDS011;9574;47.282;9.640;2022-12-11T13:28:03;10.67;;;5.80;;
18883;SDS011;9574;47.282;9.640;2022-12-11T13:30:32;10.70;;;5.77;;
18883;SDS011;9574;47.282;9.640;2022-12-11T13:33:01;8.67;;;5.07;;
18883;SDS011;9574;47.282;9.640;2022-12-11T13:35:31;7.47;;;4.80;;
18883;SDS011;9574;47.282;9.640;2022-12-11T13:38:02;8.57;;;4.57;;
18883;SDS011;9574;47.282;9.640;2022-12-11T13:40:34;5.07;;;3.43;;
18883;SDS011;9574;47.282;9.640;2022-12-11T13:43:04;6.20;;;3.97;;
18883;SDS011;9574;47.282;9.640;2022-12-11T13:45:37;7.93;;;4.07;;
18883;SDS011;9574;47.282;9.640;2022-12-11T13:48:14;8.73;;;4.67;;
18883;SDS011;9574;47.282;9.640;2022-12-11T13:50:46;13.07;;;5.57;;
18883;SDS011;9574;47.282;9.640;2022-12-11T13:53:15;9.30;;;4.60;;
18883;SDS011;9574;47.282;9.640;2022-12-11T13:55:43;11.43;;;5.17;;
18883;SDS011;9574;47.282;9.640;2022-12-11T13:58:14;12.83;;;7.63;;
18883;SDS011;9574;47.282;9.640;2022-12-11T14:00:50;14.63;;;6.47;;
18883;SDS011;9574;47.282;9.640;2022-12-11T14:03:28;17.47;;;6.57;;
18883;SDS011;9574;47.282;9.640;2022-12-11T14:05:57;8.63;;;4.40;;
18883;SDS011;9574;47.282;9.640;2022-12-11T14:08:28;6.83;;;3.73;;
18883;SDS011;9574;47.282;9.640;2022-12-11T14:10:59;9.13;;;4.90;;
18883;SDS011;9574;47.282;9.640;2022-12-11T14:13:26;7.10;;;4.17;;
18883;SDS011;9574;47.282;9.640;2022-12-11T14:15:58;8.10;;;4.27;;
18883;SDS011;9574;47.282;9.640;2022-12-11T14:18:26;7.23;;;4.20;;
18883;SDS011;9574;47.282;9.640;2022-12-11T14:20:56;8.67;;;4.27;;
18883;SDS011;9574;47.282;9.640;2022-12-11T14:23:26;8.23;;;4.67;;
18883;SDS011;9574;47.282;9.640;2022-12-11T14:25:55;9.97;;;5.10;;
18883;SDS011;9574;47.282;9.640;2022-12-11T14:28:23;7.20;;;4.33;;
18883;SDS011;9574;47.282;9.640;2022-12-11T14:30:53;9.17;;;5.13;;
18883;SDS011;9574;47.282;9.640;2022-12-11T14:33:25;8.63;;;4.80;;
18883;SDS011;9574;47.282;9.640;2022-12-11T14:35:55;11.37;;;5.37;;
18883;SDS011;9574;47.282;9.640;2022-12-11T14:38:26;8.60;;;4.17;;
18883;SDS011;9574;47.282;9.640;2022-12-11T14:40:57;9.23;;;5.27;;
18883;SDS011;9574;47.282;9.640;2022-12-11T14:43:30;9.73;;;5.43;;
18883;SDS011;9574;47.282;9.640;2022-12-11T14:46:02;8.90;;;5.17;;
18883;SDS011;9574;47.282;9.640;2022-12-11T14:48:35;13.93;;;5.70;;
18883;SDS011;9574;47.282;9.640;2022-12-11T14:51:09;11.13;;;5.23;;
18883;SDS011;9574;47.282;9.640;2022-12-11T14:53:41;11.47;;;5.80;;
18883;SDS011;9574;47.282;9.640;2022-12-11T14:56:15;12.33;;;5.20;;
18883;SDS011;9574;47.282;9.640;2022-12-11T14:58:46;12.47;;;5.67;;
18883;SDS011;9574;47.282;9.640;2022-12-11T15:01:20;10.93;;;4.93;;
18883;SDS011;9574;47.282;9.640;2022-12-11T15:03:49;8.27;;;5.17;;
18883;SDS011;9574;47.282;9.640;2022-12-11T15:06:27;11.47;;;5.67;;
18883;SDS011;9574;47.282;9.640;2022-12-11T15:09:07;10.67;;;4.87;;
18883;SDS011;9574;47.282;9.640;2022-12-11T15:11:38;9.47;;;4.67;;
18883;SDS011;9574;47.282;9.640;2022-12-11T15:14:08;9.20;;;5.23;;
18883;SDS011;9574;47.282;9.640;2022-12-11T15:16:37;12.67;;;5.17;;
18883;SDS011;9574;47.282;9.640;2022-12-11T15:19:13;11.10;;;5.40;;